sensor_id;sensor_type;location;lat;lon;timestamp;temperature;humidity
68109;SHT30;54893;49.864;19.084;2024-03-06T00:01:50;4.60;99.99
68109;SHT30;54893;49.864;19.084;2024-03-06T00:06:50;4.54;99.99
68109;SHT30;54893;49.864;19.084;2024-03-06T00:11:53;4.47;99.99
68109;SHT30;54893;49.864;19.084;2024-03-06T00:16:53;4.36;99.99
68109;SHT30;54893;49.864;19.084;2024-03-06T00:21:56;4.36;99.99
68109;SHT30;54893;49.864;19.084;2024-03-06T00:26:56;4.25;99.99
68109;SHT30;54893;49.864;19.084;2024-03-06T00:31:56;4.05;99.99
68109;SHT30;54893;49.864;19.084;2024-03-06T00:36:57;3.86;99.99
68109;SHT30;54893;49.864;19.084;2024-03-06T00:41:58;3.62;99.99
68109;SHT30;54893;49.864;19.084;2024-03-06T00:46:58;3.32;99.99
68109;SHT30;54893;49.864;19.084;2024-03-06T00:51:59;3.13;99.99
68109;SHT30;54893;49.864;19.084;2024-03-06T00:56:59;2.96;99.99
68109;SHT30;54893;49.864;19.084;2024-03-06T01:01:59;2.80;99.99
68109;SHT30;54893;49.864;19.084;2024-03-06T01:07:00;2.64;99.99
68109;SHT30;54893;49.864;19.084;2024-03-06T01:12:01;2.50;99.99
68109;SHT30;54893;49.864;19.084;2024-03-06T01:17:01;2.40;99.99
68109;SHT30;54893;49.864;19.084;2024-03-06T01:22:02;2.34;99.99
68109;SHT30;54893;49.864;19.084;2024-03-06T01:27:02;2.20;99.99
68109;SHT30;54893;49.864;19.084;2024-03-06T01:32:03;2.07;99.99
68109;SHT30;54893;49.864;19.084;2024-03-06T01:37:04;2.02;99.99
68109;SHT30;54893;49.864;19.084;2024-03-06T01:42:04;2.00;99.99
68109;SHT30;54893;49.864;19.084;2024-03-06T01:47:04;1.94;99.99
68109;SHT30;54893;49.864;19.084;2024-03-06T01:52:09;1.90;99.99
68109;SHT30;54893;49.864;19.084;2024-03-06T01:57:11;1.73;99.99
68109;SHT30;54893;49.864;19.084;2024-03-06T02:02:13;1.62;99.99
68109;SHT30;54893;49.864;19.084;2024-03-06T02:07:14;1.60;99.99
68109;SHT30;54893;49.864;19.084;2024-03-06T02:12:16;1.53;99.99
68109;SHT30;54893;49.864;19.084;2024-03-06T02:17:16;1.50;99.99
68109;SHT30;54893;49.864;19.084;2024-03-06T02:22:16;1.42;99.99
68109;SHT30;54893;49.864;19.084;2024-03-06T02:27:17;1.45;99.99
68109;SHT30;54893;49.864;19.084;2024-03-06T02:32:18;1.45;99.99
68109;SHT30;54893;49.864;19.084;2024-03-06T02:37:18;1.50;99.99
68109;SHT30;54893;49.864;19.084;2024-03-06T02:42:19;1.50;99.99
68109;SHT30;54893;49.864;19.084;2024-03-06T02:47:19;1.38;99.99
68109;SHT30;54893;49.864;19.084;2024-03-06T02:52:19;1.29;99.99
68109;SHT30;54893;49.864;19.084;2024-03-06T02:57:20;1.22;99.99
68109;SHT30;54893;49.864;19.084;2024-03-06T03:02:20;1.14;99.99
68109;SHT30;54893;49.864;19.084;2024-03-06T03:07:20;1.16;99.99
68109;SHT30;54893;49.864;19.084;2024-03-06T03:12:21;1.04;99.99
68109;SHT30;54893;49.864;19.084;2024-03-06T03:17:21;0.88;99.99
68109;SHT30;54893;49.864;19.084;2024-03-06T03:22:22;0.94;99.99
68109;SHT30;54893;49.864;19.084;2024-03-06T03:27:22;0.94;99.99
68109;SHT30;54893;49.864;19.084;2024-03-06T03:32:23;0.95;99.99
68109;SHT30;54893;49.864;19.084;2024-03-06T03:37:23;0.88;99.99
68109;SHT30;54893;49.864;19.084;2024-03-06T03:42:24;0.82;99.99
68109;SHT30;54893;49.864;19.084;2024-03-06T03:47:24;0.88;99.99
68109;SHT30;54893;49.864;19.084;2024-03-06T03:52:25;0.91;99.99
68109;SHT30;54893;49.864;19.084;2024-03-06T03:57:25;0.94;99.99
68109;SHT30;54893;49.864;19.084;2024-03-06T04:02:26;0.98;99.99
68109;SHT30;54893;49.864;19.084;2024-03-06T04:07:26;1.11;99.99
68109;SHT30;54893;49.864;19.084;2024-03-06T04:12:26;1.12;99.99
68109;SHT30;54893;49.864;19.084;2024-03-06T04:17:27;1.21;99.99
68109;SHT30;54893;49.864;19.084;2024-03-06T04:22:27;1.24;99.99
68109;SHT30;54893;49.864;19.084;2024-03-06T04:27:29;1.24;99.99
68109;SHT30;54893;49.864;19.084;2024-03-06T04:32:29;1.18;99.99
68109;SHT30;54893;49.864;19.084;2024-03-06T04:37:29;1.08;99.99
68109;SHT30;54893;49.864;19.084;2024-03-06T04:42:30;1.06;99.99
68109;SHT30;54893;49.864;19.084;2024-03-06T04:47:31;1.12;99.99
68109;SHT30;54893;49.864;19.084;2024-03-06T04:52:31;1.14;99.99
68109;SHT30;54893;49.864;19.084;2024-03-06T04:57:32;1.19;99.99
68109;SHT30;54893;49.864;19.084;2024-03-06T05:02:32;1.18;99.99
68109;SHT30;54893;49.864;19.084;2024-03-06T05:07:34;1.02;99.99
68109;SHT30;54893;49.864;19.084;2024-03-06T05:12:35;0.99;99.99
68109;SHT30;54893;49.864;19.084;2024-03-06T05:17:35;0.92;99.99
68109;SHT30;54893;49.864;19.084;2024-03-06T05:22:37;0.94;99.99
68109;SHT30;54893;49.864;19.084;2024-03-06T05:27:38;0.99;99.99
68109;SHT30;54893;49.864;19.084;2024-03-06T05:32:39;0.98;99.99
68109;SHT30;54893;49.864;19.084;2024-03-06T05:37:39;1.04;99.99
68109;SHT30;54893;49.864;19.084;2024-03-06T05:42:40;0.96;99.99
68109;SHT30;54893;49.864;19.084;2024-03-06T05:47:40;0.99;99.99
68109;SHT30;54893;49.864;19.084;2024-03-06T05:52:41;0.88;99.99
68109;SHT30;54893;49.864;19.084;2024-03-06T05:57:42;0.81;99.99
68109;SHT30;54893;49.864;19.084;2024-03-06T06:02:45;0.82;99.99
68109;SHT30;54893;49.864;19.084;2024-03-06T06:07:46;0.85;99.99
68109;SHT30;54893;49.864;19.084;2024-03-06T06:12:46;1.04;99.99
68109;SHT30;54893;49.864;19.084;2024-03-06T06:17:47;1.32;99.99
68109;SHT30;54893;49.864;19.084;2024-03-06T06:22:48;1.12;99.99
68109;SHT30;54893;49.864;19.084;2024-03-06T06:27:48;1.11;99.99
68109;SHT30;54893;49.864;19.084;2024-03-06T06:32:49;1.43;99.99
68109;SHT30;54893;49.864;19.084;2024-03-06T06:37:49;1.18;99.99
68109;SHT30;54893;49.864;19.084;2024-03-06T06:42:50;1.04;99.99
68109;SHT30;54893;49.864;19.084;2024-03-06T06:47:51;0.92;99.99
68109;SHT30;54893;49.864;19.084;2024-03-06T06:52:52;0.50;99.99
68109;SHT30;54893;49.864;19.084;2024-03-06T06:57:52;0.64;99.99
68109;SHT30;54893;49.864;19.084;2024-03-06T07:02:53;0.43;99.99
68109;SHT30;54893;49.864;19.084;2024-03-06T07:07:54;0.56;99.99
68109;SHT30;54893;49.864;19.084;2024-03-06T07:12:54;0.56;99.99
68109;SHT30;54893;49.864;19.084;2024-03-06T07:17:55;0.91;99.99
68109;SHT30;54893;49.864;19.084;2024-03-06T07:22:55;0.70;99.99
68109;SHT30;54893;49.864;19.084;2024-03-06T07:27:55;0.81;99.99
68109;SHT30;54893;49.864;19.084;2024-03-06T07:32:56;1.34;99.99
68109;SHT30;54893;49.864;19.084;2024-03-06T07:37:57;1.24;99.99
68109;SHT30;54893;49.864;19.084;2024-03-06T07:42:58;1.55;99.99
68109;SHT30;54893;49.864;19.084;2024-03-06T07:47:59;1.97;99.99
68109;SHT30;54893;49.864;19.084;2024-03-06T07:53:00;2.18;99.99
68109;SHT30;54893;49.864;19.084;2024-03-06T07:58:00;2.09;99.77
68109;SHT30;54893;49.864;19.084;2024-03-06T08:03:01;1.43;98.99
68109;SHT30;54893;49.864;19.084;2024-03-06T08:08:03;1.56;99.99
68109;SHT30;54893;49.864;19.084;2024-03-06T08:13:04;2.16;99.99
68109;SHT30;54893;49.864;19.084;2024-03-06T08:18:04;2.37;98.26
68109;SHT30;54893;49.864;19.084;2024-03-06T08:23:05;2.44;97.49
68109;SHT30;54893;49.864;19.084;2024-03-06T08:28:05;2.02;98.30
68109;SHT30;54893;49.864;19.084;2024-03-06T08:33:06;2.28;98.01
68109;SHT30;54893;49.864;19.084;2024-03-06T08:38:06;2.52;98.85
68109;SHT30;54893;49.864;19.084;2024-03-06T08:43:07;2.87;98.48
68109;SHT30;54893;49.864;19.084;2024-03-06T08:48:09;2.74;97.64
68109;SHT30;54893;49.864;19.084;2024-03-06T08:53:09;2.57;98.71
68109;SHT30;54893;49.864;19.084;2024-03-06T08:58:09;2.88;98.02
68109;SHT30;54893;49.864;19.084;2024-03-06T09:03:10;3.05;97.97
68109;SHT30;54893;49.864;19.084;2024-03-06T09:08:10;2.70;96.95
68109;SHT30;54893;49.864;19.084;2024-03-06T09:13:12;3.48;97.24
68109;SHT30;54893;49.864;19.084;2024-03-06T09:18:12;4.22;94.66
68109;SHT30;54893;49.864;19.084;2024-03-06T09:23:13;3.53;95.21
68109;SHT30;54893;49.864;19.084;2024-03-06T09:28:15;3.36;95.15
68109;SHT30;54893;49.864;19.084;2024-03-06T09:33:15;4.21;93.94
68109;SHT30;54893;49.864;19.084;2024-03-06T09:38:16;3.77;95.13
68109;SHT30;54893;49.864;19.084;2024-03-06T09:43:17;3.35;95.46
68109;SHT30;54893;49.864;19.084;2024-03-06T09:48:20;3.62;96.16
68109;SHT30;54893;49.864;19.084;2024-03-06T09:53:21;3.63;94.83
68109;SHT30;54893;49.864;19.084;2024-03-06T09:58:23;3.55;94.28
68109;SHT30;54893;49.864;19.084;2024-03-06T10:03:23;3.80;93.80
68109;SHT30;54893;49.864;19.084;2024-03-06T10:08:24;3.82;93.36
68109;SHT30;54893;49.864;19.084;2024-03-06T10:13:26;4.65;92.66
68109;SHT30;54893;49.864;19.084;2024-03-06T10:18:28;4.01;93.75
68109;SHT30;54893;49.864;19.084;2024-03-06T10:23:29;4.01;93.22
68109;SHT30;54893;49.864;19.084;2024-03-06T10:28:32;4.20;93.10
68109;SHT30;54893;49.864;19.084;2024-03-06T10:33:32;4.72;92.29
68109;SHT30;54893;49.864;19.084;2024-03-06T10:38:36;4.13;91.27
68109;SHT30;54893;49.864;19.084;2024-03-06T10:43:39;4.62;91.25
68109;SHT30;54893;49.864;19.084;2024-03-06T10:48:41;4.91;88.67
68109;SHT30;54893;49.864;19.084;2024-03-06T10:53:43;5.00;90.46
68109;SHT30;54893;49.864;19.084;2024-03-06T10:58:44;5.09;89.57
68109;SHT30;54893;49.864;19.084;2024-03-06T11:03:44;4.79;91.88
68109;SHT30;54893;49.864;19.084;2024-03-06T11:08:46;4.22;90.55
68109;SHT30;54893;49.864;19.084;2024-03-06T11:13:48;4.28;91.75
68109;SHT30;54893;49.864;19.084;2024-03-06T11:18:49;4.47;91.77
68109;SHT30;54893;49.864;19.084;2024-03-06T11:29:20;4.57;92.89
68109;SHT30;54893;49.864;19.084;2024-03-06T11:34:21;4.85;93.09
68109;SHT30;54893;49.864;19.084;2024-03-06T11:39:22;5.08;90.88
68109;SHT30;54893;49.864;19.084;2024-03-06T11:44:23;4.95;92.91
68109;SHT30;54893;49.864;19.084;2024-03-06T11:49:26;4.24;92.65
68109;SHT30;54893;49.864;19.084;2024-03-06T11:54:29;4.03;93.63
68109;SHT30;54893;49.864;19.084;2024-03-06T11:59:35;3.62;94.65
68109;SHT30;54893;49.864;19.084;2024-03-06T12:04:35;3.90;95.82
68109;SHT30;54893;49.864;19.084;2024-03-06T12:09:38;3.60;94.71
68109;SHT30;54893;49.864;19.084;2024-03-06T12:14:40;3.66;95.28
68109;SHT30;54893;49.864;19.084;2024-03-06T12:19:42;3.94;94.97
68109;SHT30;54893;49.864;19.084;2024-03-06T12:24:43;3.97;94.70
68109;SHT30;54893;49.864;19.084;2024-03-06T12:29:44;3.67;95.76
68109;SHT30;54893;49.864;19.084;2024-03-06T12:34:59;3.74;94.94
68109;SHT30;54893;49.864;19.084;2024-03-06T12:40:00;3.60;94.66
68109;SHT30;54893;49.864;19.084;2024-03-06T12:45:00;3.72;94.75
68109;SHT30;54893;49.864;19.084;2024-03-06T12:50:01;3.63;94.77
68109;SHT30;54893;49.864;19.084;2024-03-06T12:55:02;3.70;94.80
68109;SHT30;54893;49.864;19.084;2024-03-06T13:00:05;3.53;95.45
68109;SHT30;54893;49.864;19.084;2024-03-06T13:05:14;3.60;96.24
68109;SHT30;54893;49.864;19.084;2024-03-06T13:10:14;3.70;95.22
68109;SHT30;54893;49.864;19.084;2024-03-06T13:15:15;3.58;95.75
68109;SHT30;54893;49.864;19.084;2024-03-06T13:20:15;3.60;96.68
68109;SHT30;54893;49.864;19.084;2024-03-06T13:25:16;3.69;97.02
68109;SHT30;54893;49.864;19.084;2024-03-06T13:30:16;3.74;95.20
68109;SHT30;54893;49.864;19.084;2024-03-06T13:35:17;3.67;95.59
68109;SHT30;54893;49.864;19.084;2024-03-06T13:40:17;3.62;95.31
68109;SHT30;54893;49.864;19.084;2024-03-06T13:45:17;3.58;95.34
68109;SHT30;54893;49.864;19.084;2024-03-06T13:50:18;3.49;95.41
68109;SHT30;54893;49.864;19.084;2024-03-06T13:55:18;3.50;95.50
68109;SHT30;54893;49.864;19.084;2024-03-06T14:00:19;3.43;95.70
68109;SHT30;54893;49.864;19.084;2024-03-06T14:05:19;3.39;95.83
68109;SHT30;54893;49.864;19.084;2024-03-06T14:10:25;3.35;96.24
68109;SHT30;54893;49.864;19.084;2024-03-06T14:15:26;3.30;96.95
68109;SHT30;54893;49.864;19.084;2024-03-06T14:20:27;3.38;97.00
68109;SHT30;54893;49.864;19.084;2024-03-06T14:25:27;3.30;96.55
68109;SHT30;54893;49.864;19.084;2024-03-06T14:30:27;3.12;98.74
68109;SHT30;54893;49.864;19.084;2024-03-06T14:35:28;3.09;99.15
68109;SHT30;54893;49.864;19.084;2024-03-06T14:40:28;3.16;97.46
68109;SHT30;54893;49.864;19.084;2024-03-06T14:45:30;3.25;98.76
68109;SHT30;54893;49.864;19.084;2024-03-06T14:50:31;3.15;99.49
68109;SHT30;54893;49.864;19.084;2024-03-06T14:55:31;3.18;99.57
68109;SHT30;54893;49.864;19.084;2024-03-06T15:00:31;3.26;98.48
68109;SHT30;54893;49.864;19.084;2024-03-06T15:05:32;3.26;98.80
68109;SHT30;54893;49.864;19.084;2024-03-06T15:10:32;3.26;97.52
68109;SHT30;54893;49.864;19.084;2024-03-06T15:15:33;3.33;97.52
68109;SHT30;54893;49.864;19.084;2024-03-06T15:20:33;3.28;97.58
68109;SHT30;54893;49.864;19.084;2024-03-06T15:25:33;3.28;97.81
68109;SHT30;54893;49.864;19.084;2024-03-06T15:30:34;3.29;99.99
68109;SHT30;54893;49.864;19.084;2024-03-06T15:35:35;3.36;99.37
68109;SHT30;54893;49.864;19.084;2024-03-06T15:40:36;3.35;99.99
68109;SHT30;54893;49.864;19.084;2024-03-06T15:45:36;3.32;99.99
68109;SHT30;54893;49.864;19.084;2024-03-06T15:50:37;3.32;99.99
68109;SHT30;54893;49.864;19.084;2024-03-06T15:55:37;3.28;99.99
68109;SHT30;54893;49.864;19.084;2024-03-06T16:00:37;3.23;99.99
68109;SHT30;54893;49.864;19.084;2024-03-06T16:05:38;3.28;98.81
68109;SHT30;54893;49.864;19.084;2024-03-06T16:10:38;3.26;99.99
68109;SHT30;54893;49.864;19.084;2024-03-06T16:15:39;3.22;99.99
68109;SHT30;54893;49.864;19.084;2024-03-06T16:20:39;3.22;99.99
68109;SHT30;54893;49.864;19.084;2024-03-06T16:25:40;3.19;99.30
68109;SHT30;54893;49.864;19.084;2024-03-06T16:30:40;3.25;99.99
68109;SHT30;54893;49.864;19.084;2024-03-06T16:35:40;3.22;99.62
68109;SHT30;54893;49.864;19.084;2024-03-06T16:40:41;3.16;99.99
68109;SHT30;54893;49.864;19.084;2024-03-06T16:45:41;3.25;99.99
68109;SHT30;54893;49.864;19.084;2024-03-06T16:50:42;3.23;99.99
68109;SHT30;54893;49.864;19.084;2024-03-06T16:55:42;3.22;99.99
68109;SHT30;54893;49.864;19.084;2024-03-06T17:00:43;3.23;99.88
68109;SHT30;54893;49.864;19.084;2024-03-06T17:05:43;3.23;99.99
68109;SHT30;54893;49.864;19.084;2024-03-06T17:10:43;3.23;99.99
68109;SHT30;54893;49.864;19.084;2024-03-06T17:15:44;3.22;99.99
68109;SHT30;54893;49.864;19.084;2024-03-06T17:20:44;3.20;99.99
68109;SHT30;54893;49.864;19.084;2024-03-06T17:25:45;3.19;99.99
68109;SHT30;54893;49.864;19.084;2024-03-06T17:30:45;3.26;99.99
68109;SHT30;54893;49.864;19.084;2024-03-06T17:35:47;3.26;99.99
68109;SHT30;54893;49.864;19.084;2024-03-06T17:40:47;3.28;99.99
68109;SHT30;54893;49.864;19.084;2024-03-06T17:45:48;3.32;99.99
68109;SHT30;54893;49.864;19.084;2024-03-06T17:50:48;3.25;99.99
68109;SHT30;54893;49.864;19.084;2024-03-06T17:55:48;3.23;99.99
68109;SHT30;54893;49.864;19.084;2024-03-06T18:00:49;3.28;99.99
68109;SHT30;54893;49.864;19.084;2024-03-06T18:05:50;3.28;99.99
68109;SHT30;54893;49.864;19.084;2024-03-06T18:10:51;3.30;99.99
68109;SHT30;54893;49.864;19.084;2024-03-06T18:15:51;3.40;99.99
68109;SHT30;54893;49.864;19.084;2024-03-06T18:20:52;3.36;99.99
68109;SHT30;54893;49.864;19.084;2024-03-06T18:25:53;3.36;99.99
68109;SHT30;54893;49.864;19.084;2024-03-06T18:30:54;3.38;99.99
68109;SHT30;54893;49.864;19.084;2024-03-06T18:35:55;3.40;99.99
68109;SHT30;54893;49.864;19.084;2024-03-06T18:40:55;3.42;99.99
68109;SHT30;54893;49.864;19.084;2024-03-06T18:45:56;3.55;99.99
68109;SHT30;54893;49.864;19.084;2024-03-06T18:50:56;3.59;99.99
68109;SHT30;54893;49.864;19.084;2024-03-06T18:55:56;3.58;99.99
68109;SHT30;54893;49.864;19.084;2024-03-06T19:00:57;3.59;99.99
68109;SHT30;54893;49.864;19.084;2024-03-06T19:06:00;3.55;99.99
68109;SHT30;54893;49.864;19.084;2024-03-06T19:11:00;3.62;99.99
68109;SHT30;54893;49.864;19.084;2024-03-06T19:16:01;3.66;99.99
68109;SHT30;54893;49.864;19.084;2024-03-06T19:21:01;3.69;99.99
68109;SHT30;54893;49.864;19.084;2024-03-06T19:26:02;3.70;99.99
68109;SHT30;54893;49.864;19.084;2024-03-06T19:31:02;3.73;99.99
68109;SHT30;54893;49.864;19.084;2024-03-06T19:36:03;3.74;99.99
68109;SHT30;54893;49.864;19.084;2024-03-06T19:41:03;3.73;99.99
68109;SHT30;54893;49.864;19.084;2024-03-06T19:46:04;3.73;99.99
68109;SHT30;54893;49.864;19.084;2024-03-06T19:51:05;3.66;99.99
68109;SHT30;54893;49.864;19.084;2024-03-06T19:56:08;3.53;99.99
68109;SHT30;54893;49.864;19.084;2024-03-06T20:01:10;3.44;99.99
68109;SHT30;54893;49.864;19.084;2024-03-06T20:06:11;3.36;99.99
68109;SHT30;54893;49.864;19.084;2024-03-06T20:11:12;3.26;99.99
68109;SHT30;54893;49.864;19.084;2024-03-06T20:16:12;3.26;99.99
68109;SHT30;54893;49.864;19.084;2024-03-06T20:21:13;3.13;99.99
68109;SHT30;54893;49.864;19.084;2024-03-06T20:26:13;3.11;99.99
68109;SHT30;54893;49.864;19.084;2024-03-06T20:31:17;3.06;99.99
68109;SHT30;54893;49.864;19.084;2024-03-06T20:36:17;2.99;99.99
68109;SHT30;54893;49.864;19.084;2024-03-06T20:41:20;2.92;99.99
68109;SHT30;54893;49.864;19.084;2024-03-06T20:46:21;2.85;99.99
68109;SHT30;54893;49.864;19.084;2024-03-06T20:51:21;2.66;99.99
68109;SHT30;54893;49.864;19.084;2024-03-06T20:56:22;2.61;99.99
68109;SHT30;54893;49.864;19.084;2024-03-06T21:01:22;2.64;99.99
68109;SHT30;54893;49.864;19.084;2024-03-06T21:06:23;2.60;99.99
68109;SHT30;54893;49.864;19.084;2024-03-06T21:11:24;2.52;99.99
68109;SHT30;54893;49.864;19.084;2024-03-06T21:16:24;2.52;99.99
68109;SHT30;54893;49.864;19.084;2024-03-06T21:21:25;2.37;99.99
68109;SHT30;54893;49.864;19.084;2024-03-06T21:26:28;2.37;99.99
68109;SHT30;54893;49.864;19.084;2024-03-06T21:31:29;2.37;99.99
68109;SHT30;54893;49.864;19.084;2024-03-06T21:36:29;2.38;99.99
68109;SHT30;54893;49.864;19.084;2024-03-06T21:41:32;2.36;99.99
68109;SHT30;54893;49.864;19.084;2024-03-06T21:46:33;2.36;99.99
68109;SHT30;54893;49.864;19.084;2024-03-06T21:51:33;2.30;99.99
68109;SHT30;54893;49.864;19.084;2024-03-06T21:56:34;2.31;99.99
68109;SHT30;54893;49.864;19.084;2024-03-06T22:01:35;2.31;99.99
68109;SHT30;54893;49.864;19.084;2024-03-06T22:06:35;2.24;99.99
68109;SHT30;54893;49.864;19.084;2024-03-06T22:11:40;2.26;99.99
68109;SHT30;54893;49.864;19.084;2024-03-06T22:16:43;2.27;99.99
68109;SHT30;54893;49.864;19.084;2024-03-06T22:21:44;2.24;99.99
68109;SHT30;54893;49.864;19.084;2024-03-06T22:26:47;2.23;99.99
68109;SHT30;54893;49.864;19.084;2024-03-06T22:31:47;2.17;99.99
68109;SHT30;54893;49.864;19.084;2024-03-06T22:36:51;2.18;99.99
68109;SHT30;54893;49.864;19.084;2024-03-06T22:41:51;2.23;99.99
68109;SHT30;54893;49.864;19.084;2024-03-06T22:46:52;2.23;99.99
68109;SHT30;54893;49.864;19.084;2024-03-06T22:51:52;2.26;99.99
68109;SHT30;54893;49.864;19.084;2024-03-06T22:56:54;2.26;99.99
68109;SHT30;54893;49.864;19.084;2024-03-06T23:01:54;2.28;99.99
68109;SHT30;54893;49.864;19.084;2024-03-06T23:06:55;2.27;99.99
68109;SHT30;54893;49.864;19.084;2024-03-06T23:11:55;2.23;99.99
68109;SHT30;54893;49.864;19.084;2024-03-06T23:16:56;2.31;99.99
68109;SHT30;54893;49.864;19.084;2024-03-06T23:21:56;2.37;99.99
68109;SHT30;54893;49.864;19.084;2024-03-06T23:26:58;2.38;99.99
68109;SHT30;54893;49.864;19.084;2024-03-06T23:31:58;2.37;99.99
68109;SHT30;54893;49.864;19.084;2024-03-06T23:36:59;2.36;99.99
68109;SHT30;54893;49.864;19.084;2024-03-06T23:41:59;2.34;99.99
68109;SHT30;54893;49.864;19.084;2024-03-06T23:47:00;2.30;99.99
68109;SHT30;54893;49.864;19.084;2024-03-06T23:52:01;2.28;99.99
68109;SHT30;54893;49.864;19.084;2024-03-06T23:57:04;2.28;99.99
